createdAt,value
2023-05-09T00:00:50.045Z,585.5385
2023-05-09T00:01:51.157Z,582.6923
2023-05-09T00:02:52.265Z,582.5385
2023-05-09T00:03:53.400Z,578.0000
2023-05-09T00:04:54.459Z,579.6923
2023-05-09T00:05:55.610Z,580.6923
2023-05-09T00:06:56.620Z,577.6923
2023-05-09T00:07:57.712Z,582.2308
2023-05-09T00:08:58.816Z,586.3846
2023-05-09T00:09:59.897Z,582.2308
2023-05-09T00:11:00.999Z,576.6154
2023-05-09T00:12:02.096Z,578.3077
2023-05-09T00:13:03.208Z,583.5385
2023-05-09T00:14:04.276Z,584.1539
2023-05-09T00:15:05.422Z,577.0769
2023-05-09T00:16:06.474Z,577.6154
2023-05-09T00:17:07.537Z,574.0769
2023-05-09T00:18:08.626Z,584.3846
2023-05-09T00:19:09.736Z,578.4615
2023-05-09T00:20:10.842Z,579.0769
2023-05-09T00:21:11.998Z,584.3077
2023-05-09T00:22:12.998Z,580.6923
2023-05-09T00:23:14.101Z,576.3846
2023-05-09T00:24:15.196Z,579.6923
2023-05-09T00:25:16.508Z,583.0000
2023-05-09T00:26:17.389Z,577.2308
2023-05-09T00:27:18.494Z,578.6923
2023-05-09T00:28:19.573Z,576.0769
2023-05-09T00:29:20.671Z,576.2308
2023-05-09T00:30:21.750Z,577.4615
2023-05-09T00:31:22.862Z,568.2308
2023-05-09T00:32:23.951Z,574.5385
2023-05-09T00:33:25.065Z,569.2308
2023-05-09T00:34:26.146Z,567.4615
2023-05-09T00:35:27.243Z,566.0769
2023-05-09T00:36:28.420Z,563.3846
2023-05-09T00:37:29.434Z,561.4615
2023-05-09T00:38:30.544Z,558.8461
2023-05-09T00:39:31.622Z,559.3846
2023-05-09T00:40:32.732Z,562.2308
2023-05-09T00:41:33.807Z,559.2308
2023-05-09T00:42:34.901Z,554.2308
2023-05-09T00:43:35.982Z,557.6923
2023-05-09T00:44:37.086Z,564.0769
2023-05-09T00:45:38.198Z,567.4615
2023-05-09T00:46:39.273Z,563.2308
2023-05-09T00:47:40.383Z,565.6154
2023-05-09T00:48:41.458Z,565.5385
2023-05-09T00:49:42.563Z,555.0000
2023-05-09T00:50:43.671Z,556.0769
2023-05-09T00:51:44.827Z,557.1539
2023-05-09T00:52:45.819Z,560.8461
2023-05-09T00:53:46.908Z,563.7692
2023-05-09T00:54:48.038Z,569.6154
2023-05-09T00:55:49.109Z,559.2308
2023-05-09T00:56:50.212Z,561.8461
2023-05-09T00:57:51.309Z,557.1539
2023-05-09T00:58:52.398Z,563.5385
2023-05-09T00:59:53.506Z,561.9231
2023-05-09T01:00:54.603Z,557.7692
2023-05-09T01:01:55.689Z,557.5385
2023-05-09T01:02:56.935Z,557.3846
2023-05-09T01:03:57.886Z,559.0000
2023-05-09T01:04:58.992Z,555.6154
2023-05-09T01:06:00.105Z,552.6923
2023-05-09T01:07:01.281Z,558.1539
2023-05-09T01:08:02.280Z,558.1539
2023-05-09T01:09:03.373Z,556.1539
2023-05-09T01:10:04.453Z,559.0000
2023-05-09T01:11:05.617Z,555.6154
2023-05-09T01:12:06.654Z,558.3077
2023-05-09T01:13:07.759Z,560.0769
2023-05-09T01:14:08.856Z,557.1539
2023-05-09T01:15:09.948Z,559.6154
2023-05-09T01:16:11.078Z,553.3077
2023-05-09T01:17:12.108Z,547.0000
2023-05-09T01:18:13.245Z,552.2308
2023-05-09T01:19:14.309Z,555.0769
2023-05-09T01:20:15.405Z,550.7692
2023-05-09T01:21:16.509Z,550.3077
2023-05-09T01:22:17.709Z,550.0769
2023-05-09T01:23:18.693Z,548.1539
2023-05-09T01:24:19.772Z,546.3846
2023-05-09T01:25:20.886Z,549.2308
2023-05-09T01:26:21.964Z,549.8461
2023-05-09T01:27:23.055Z,551.8461
2023-05-09T01:28:24.148Z,555.6154
2023-05-09T01:29:25.254Z,558.3846
2023-05-09T01:30:26.350Z,555.8461
2023-05-09T01:31:27.450Z,549.9231
2023-05-09T01:32:28.614Z,549.0769
2023-05-09T01:33:29.636Z,551.3846
2023-05-09T01:34:30.739Z,547.2308
2023-05-09T01:35:31.834Z,551.0769
2023-05-09T01:36:33.017Z,550.9231
2023-05-09T01:37:34.089Z,547.0769
2023-05-09T01:38:35.109Z,554.2308
2023-05-09T01:39:36.190Z,555.3077
2023-05-09T01:40:37.286Z,557.0769
2023-05-09T01:41:38.416Z,557.3846
2023-05-09T01:42:39.473Z,556.2308
2023-05-09T01:43:40.653Z,557.3846
2023-05-09T01:44:41.663Z,554.5385
2023-05-09T01:45:42.773Z,556.5385
2023-05-09T01:46:43.888Z,559.9231
2023-05-09T01:47:44.991Z,559.2308
2023-05-09T01:48:46.031Z,560.6154
2023-05-09T01:49:47.120Z,555.5385
2023-05-09T01:50:48.208Z,556.8461
2023-05-09T01:51:49.318Z,553.7692
2023-05-09T01:52:50.495Z,551.4615
2023-05-09T01:53:51.493Z,551.1539
2023-05-09T01:54:52.592Z,557.6923
2023-05-09T01:55:53.665Z,549.4615
2023-05-09T01:56:54.796Z,547.2308
2023-05-09T01:57:55.858Z,549.6154
2023-05-09T01:58:56.960Z,547.6154
2023-05-09T01:59:58.041Z,546.0000
2023-05-09T02:00:59.180Z,561.4615
2023-05-09T02:02:00.361Z,557.4615
2023-05-09T02:03:01.427Z,556.0000
2023-05-09T02:04:02.427Z,551.3077
2023-05-09T02:05:03.568Z,553.9231
2023-05-09T02:06:04.611Z,554.5385
2023-05-09T02:07:05.742Z,556.1539
2023-05-09T02:08:06.907Z,547.8461
2023-05-09T02:09:07.884Z,549.4615
2023-05-09T02:10:08.977Z,548.2308
2023-05-09T02:11:17.612Z,554.3846
2023-05-09T02:12:11.179Z,554.5833
2023-05-09T02:13:12.278Z,557.6923
2023-05-09T02:14:13.355Z,559.0000
2023-05-09T02:15:14.648Z,551.4615
2023-05-09T02:16:15.593Z,542.9231
2023-05-09T02:17:16.624Z,549.9231
2023-05-09T02:18:17.719Z,550.0769
2023-05-09T02:19:18.806Z,547.3846
2023-05-09T02:20:19.891Z,548.3077
2023-05-09T02:21:20.985Z,545.8461
2023-05-09T02:22:22.105Z,556.7692
2023-05-09T02:23:23.267Z,562.6154
2023-05-09T02:24:24.340Z,553.3846
2023-05-09T02:25:25.417Z,551.7692
2023-05-09T02:26:26.515Z,547.0769
2023-05-09T02:27:27.625Z,546.5385
2023-05-09T02:28:28.686Z,537.9231
2023-05-09T02:29:29.788Z,541.6154
2023-05-09T02:30:30.874Z,541.9231
2023-05-09T02:31:32.009Z,543.9231
2023-05-09T02:32:33.097Z,542.0769
2023-05-09T02:33:34.131Z,548.0000
2023-05-09T02:34:35.223Z,546.6154
2023-05-09T02:35:36.307Z,552.3846
2023-05-09T02:36:37.437Z,547.8461
2023-05-09T02:37:38.499Z,546.5385
2023-05-09T02:38:39.641Z,550.3077
2023-05-09T02:39:40.650Z,548.1539
2023-05-09T02:40:41.744Z,547.6154
2023-05-09T02:41:42.814Z,541.2308
2023-05-09T02:42:43.911Z,549.5385
2023-05-09T02:43:44.991Z,544.3077
2023-05-09T02:44:46.089Z,548.6154
2023-05-09T02:45:47.249Z,551.5385
2023-05-09T02:46:48.265Z,548.3846
2023-05-09T02:47:49.416Z,543.6154
2023-05-09T02:48:50.460Z,548.8461
2023-05-09T02:49:51.556Z,550.9231
2023-05-09T02:50:52.689Z,551.8461
2023-05-09T02:51:53.741Z,552.7692
2023-05-09T02:52:54.819Z,553.9231
2023-05-09T02:53:55.984Z,552.0769
2023-05-09T02:54:57.018Z,552.1539
2023-05-09T02:55:58.112Z,561.7692
2023-05-09T02:56:59.213Z,563.4615
2023-05-09T02:58:12.562Z,558.3077
2023-05-09T02:59:02.370Z,559.9231
2023-05-09T03:00:02.489Z,547.3077
2023-05-09T03:01:03.609Z,552.3077
2023-05-09T03:02:04.664Z,550.9231
2023-05-09T03:03:05.877Z,553.3077
2023-05-09T03:04:06.840Z,555.6923
2023-05-09T03:05:07.947Z,553.2308
2023-05-09T03:06:09.022Z,557.2308
2023-05-09T03:07:10.117Z,558.1539
2023-05-09T03:08:11.256Z,557.6154
2023-05-09T03:09:12.383Z,554.4615
2023-05-09T03:10:13.430Z,556.7692
2023-05-09T03:11:14.481Z,564.6923
2023-05-09T03:12:15.598Z,559.0000
2023-05-09T03:13:16.712Z,555.6154
2023-05-09T03:14:17.784Z,559.7692
2023-05-09T03:15:18.874Z,559.2308
2023-05-09T03:16:20.047Z,558.8461
2023-05-09T03:17:21.129Z,560.4615
2023-05-09T03:18:22.157Z,565.0000
2023-05-09T03:19:23.253Z,565.8461
2023-05-09T03:20:24.345Z,563.0000
2023-05-09T03:21:25.425Z,563.8461
2023-05-09T03:22:26.536Z,566.4615
2023-05-09T03:23:27.607Z,557.3077
2023-05-09T03:24:28.802Z,554.0000
2023-05-09T03:25:29.806Z,555.8461
2023-05-09T03:26:30.887Z,564.1539
2023-05-09T03:27:31.986Z,567.5385
2023-05-09T03:28:33.094Z,563.9231
2023-05-09T03:29:34.161Z,563.1539
2023-05-09T03:30:35.270Z,561.3846
2023-05-09T03:31:36.419Z,562.5385
2023-05-09T03:32:37.491Z,555.6154
2023-05-09T03:33:38.565Z,559.2308
2023-05-09T03:34:39.622Z,562.7692
2023-05-09T03:35:40.755Z,570.4615
2023-05-09T03:36:41.806Z,563.1539
2023-05-09T03:37:42.902Z,565.6154
2023-05-09T03:38:44.047Z,562.5385
2023-05-09T03:39:45.180Z,562.3846
2023-05-09T03:40:46.195Z,565.6923
2023-05-09T03:41:47.266Z,569.8461
2023-05-09T03:42:48.398Z,566.3846
2023-05-09T03:43:49.502Z,562.3077
2023-05-09T03:44:50.550Z,560.6154
2023-05-09T03:45:51.643Z,562.4615
2023-05-09T03:46:52.850Z,562.9231
2023-05-09T03:47:53.868Z,562.7692
2023-05-09T03:48:54.968Z,569.0000
2023-05-09T03:49:56.039Z,574.0769
2023-05-09T03:50:57.130Z,570.0000
2023-05-09T03:51:58.210Z,572.4615
2023-05-09T03:52:59.315Z,572.9231
2023-05-09T03:54:00.408Z,574.0769
2023-05-09T03:55:01.595Z,571.7692
2023-05-09T03:56:02.591Z,564.6923
2023-05-09T03:57:03.668Z,569.8461
2023-05-09T03:58:04.783Z,568.5385
2023-05-09T03:59:05.887Z,568.2308
2023-05-09T04:00:06.995Z,566.7692
2023-05-09T04:01:08.060Z,568.4615
2023-05-09T04:02:09.190Z,565.9231
2023-05-09T04:03:10.464Z,573.3846
2023-05-09T04:04:11.411Z,571.0769
2023-05-09T04:05:12.673Z,571.1539
2023-05-09T04:06:13.513Z,570.6923
2023-05-09T04:07:14.614Z,568.0769
2023-05-09T04:08:15.722Z,566.0000
2023-05-09T04:09:16.817Z,562.1539
2023-05-09T04:10:18.015Z,567.1539
2023-05-09T04:11:18.985Z,562.4615
2023-05-09T04:12:20.086Z,567.2308
2023-05-09T04:13:21.242Z,562.6154
2023-05-09T04:14:22.297Z,571.2308
2023-05-09T04:15:23.384Z,568.4615
2023-05-09T04:16:24.501Z,567.0769
2023-05-09T04:17:25.632Z,562.1539
2023-05-09T04:18:26.661Z,572.5385
2023-05-09T04:19:27.793Z,569.7692
2023-05-09T04:20:28.839Z,570.6154
2023-05-09T04:21:29.920Z,567.6923
2023-05-09T04:22:31.048Z,568.6923
2023-05-09T04:23:32.121Z,576.6923
2023-05-09T04:24:33.219Z,568.0769
2023-05-09T04:25:34.402Z,569.6923
2023-05-09T04:26:35.386Z,575.6923
2023-05-09T04:27:36.481Z,579.4615
2023-05-09T04:28:37.568Z,579.8461
2023-05-09T04:29:38.708Z,575.7692
2023-05-09T04:30:39.779Z,587.0000
2023-05-09T04:31:40.909Z,574.6154
2023-05-09T04:32:41.990Z,576.3077
2023-05-09T04:33:43.063Z,576.3846
2023-05-09T04:34:44.169Z,570.7692
2023-05-09T04:35:45.217Z,572.5385
2023-05-09T04:36:46.308Z,581.1539
2023-05-09T04:37:47.411Z,578.0769
2023-05-09T04:38:48.512Z,581.5385
2023-05-09T04:39:49.622Z,583.1539
2023-05-09T04:40:50.781Z,587.1539
2023-05-09T04:41:51.785Z,588.5385
2023-05-09T04:42:52.869Z,584.2308
2023-05-09T04:43:53.957Z,590.8461
2023-05-09T04:44:55.073Z,590.4615
2023-05-09T04:45:56.187Z,591.0000
2023-05-09T04:46:57.239Z,591.1539
2023-05-09T04:47:58.475Z,591.6154
2023-05-09T04:48:59.459Z,597.4615
2023-05-09T04:50:00.537Z,594.0000
2023-05-09T04:51:01.619Z,589.3077
2023-05-09T04:52:02.754Z,592.9231
2023-05-09T04:53:03.808Z,591.2308
2023-05-09T04:54:04.911Z,590.9231
2023-05-09T04:55:06.010Z,592.7692
2023-05-09T04:56:07.197Z,591.1539
2023-05-09T04:57:17.455Z,594.5385
2023-05-09T04:58:10.267Z,597.8461
2023-05-09T04:59:10.400Z,597.8461
2023-05-09T05:00:11.516Z,602.9231
2023-05-09T05:01:12.617Z,605.8461
2023-05-09T05:02:13.667Z,599.0000
2023-05-09T05:03:14.750Z,600.3077
2023-05-09T05:04:15.895Z,603.7692
2023-05-09T05:05:17.109Z,602.2308
2023-05-09T05:06:18.075Z,600.6923
2023-05-09T05:07:19.141Z,607.2308
2023-05-09T05:08:20.262Z,603.6923
2023-05-09T05:09:21.345Z,611.3077
2023-05-09T05:10:22.471Z,614.5385
2023-05-09T05:11:23.611Z,615.7692
2023-05-09T05:12:24.624Z,612.4615
2023-05-09T05:13:25.814Z,612.8461
2023-05-09T05:14:26.813Z,615.0000
2023-05-09T05:15:27.917Z,614.6923
2023-05-09T05:16:29.092Z,613.4615
2023-05-09T05:17:30.116Z,615.9231
2023-05-09T05:18:31.188Z,618.1539
2023-05-09T05:19:32.298Z,617.1539
2023-05-09T05:20:33.423Z,617.4615
2023-05-09T05:21:34.473Z,618.2308
2023-05-09T05:22:35.587Z,619.7692
2023-05-09T05:23:36.667Z,624.6154
2023-05-09T05:24:37.786Z,620.8461
2023-05-09T05:25:38.883Z,623.3846
2023-05-09T05:26:40.052Z,627.7692
2023-05-09T05:27:41.105Z,626.3077
2023-05-09T05:28:42.149Z,630.1539
2023-05-09T05:29:43.256Z,635.3077
2023-05-09T05:30:44.363Z,632.1539
2023-05-09T05:31:45.443Z,638.6923
2023-05-09T05:32:46.547Z,633.3846
2023-05-09T05:33:47.621Z,635.0769
2023-05-09T05:34:48.729Z,635.3846
2023-05-09T05:35:49.829Z,641.9231
2023-05-09T05:36:50.899Z,641.7692
2023-05-09T05:37:52.001Z,642.3846
2023-05-09T05:38:53.107Z,647.0769
2023-05-09T05:39:54.213Z,646.3846
2023-05-09T05:40:55.322Z,651.9231
2023-05-09T05:41:56.496Z,655.2308
2023-05-09T05:42:57.503Z,655.3077
2023-05-09T05:43:58.583Z,659.3846
2023-05-09T05:44:59.685Z,652.7692
2023-05-09T05:46:00.838Z,658.3846
2023-05-09T05:47:01.864Z,655.5385
2023-05-09T05:48:03.032Z,660.1539
2023-05-09T05:49:04.068Z,659.2308
2023-05-09T05:50:05.161Z,662.3077
2023-05-09T05:51:06.261Z,665.4615
2023-05-09T05:52:07.356Z,670.7692
2023-05-09T05:53:08.446Z,669.0769
2023-05-09T05:54:09.542Z,667.6154
2023-05-09T05:55:10.652Z,675.5385
2023-05-09T05:56:11.784Z,668.5385
2023-05-09T05:57:12.864Z,666.3846
2023-05-09T05:58:13.958Z,663.6923
2023-05-09T05:59:15.026Z,667.0769
2023-05-09T06:00:16.117Z,666.1539
2023-05-09T06:01:17.223Z,668.9231
2023-05-09T06:02:18.436Z,670.3077
2023-05-09T06:03:19.499Z,663.6923
2023-05-09T06:04:20.614Z,666.0769
2023-05-09T06:05:21.602Z,659.1539
2023-05-09T06:06:22.708Z,657.9231
2023-05-09T06:07:23.790Z,654.8461
2023-05-09T06:08:24.895Z,659.7692
2023-05-09T06:09:25.992Z,663.8461
2023-05-09T06:10:27.099Z,668.1539
2023-05-09T06:11:28.208Z,673.6923
2023-05-09T06:12:29.378Z,678.6923
2023-05-09T06:13:30.402Z,677.6923
2023-05-09T06:14:31.478Z,670.5385
2023-05-09T06:15:32.560Z,678.2308
2023-05-09T06:16:33.677Z,678.0000
2023-05-09T06:17:34.785Z,686.7692
2023-05-09T06:18:35.861Z,684.6154
2023-05-09T06:19:36.953Z,687.0000
2023-05-09T06:20:38.048Z,692.0000
2023-05-09T06:21:39.149Z,701.7692
2023-05-09T06:22:40.234Z,700.5385
2023-05-09T06:23:57.000Z,693.7692
2023-05-09T06:24:43.488Z,692.7692
2023-05-09T06:25:43.613Z,692.8461
2023-05-09T06:26:44.666Z,690.5385
2023-05-09T06:27:45.849Z,691.0000
2023-05-09T06:28:46.871Z,681.3846
2023-05-09T06:29:47.976Z,679.3846
2023-05-09T06:30:49.065Z,680.9231
2023-05-09T06:31:50.191Z,687.3077
2023-05-09T06:32:51.284Z,689.6154
2023-05-09T06:33:52.373Z,681.6154
2023-05-09T06:34:53.456Z,674.8461
2023-05-09T06:35:54.532Z,674.5385
2023-05-09T06:36:55.633Z,675.3846
2023-05-09T06:37:56.737Z,669.6923
2023-05-09T06:38:57.821Z,667.9231
2023-05-09T06:39:58.920Z,666.3846
2023-05-09T06:41:00.011Z,659.1539
2023-05-09T06:42:01.146Z,667.3077
2023-05-09T06:43:02.300Z,664.2308
2023-05-09T06:44:03.300Z,654.0769
2023-05-09T06:45:04.425Z,654.9231
2023-05-09T06:46:05.537Z,650.1539
2023-05-09T06:47:06.593Z,652.1539
2023-05-09T06:48:07.787Z,651.5385
2023-05-09T06:49:08.775Z,650.9231
2023-05-09T06:50:09.883Z,642.8461
2023-05-09T06:51:10.988Z,644.5385
2023-05-09T06:52:12.073Z,643.1539
2023-05-09T06:53:13.158Z,643.3846
2023-05-09T06:54:14.257Z,651.0769
2023-05-09T06:55:15.591Z,649.0769
2023-05-09T06:56:18.322Z,640.0000
2023-05-09T06:57:17.541Z,642.6923
2023-05-09T06:58:18.718Z,636.9231
2023-05-09T06:59:19.712Z,635.1539
2023-05-09T07:00:20.826Z,641.3846
2023-05-09T07:01:21.979Z,644.3846
2023-05-09T07:02:23.039Z,638.5385
2023-05-09T07:03:24.091Z,641.1539
2023-05-09T07:04:25.189Z,639.3846
2023-05-09T07:05:26.353Z,647.5385
2023-05-09T07:06:27.369Z,648.9231
2023-05-09T07:07:28.500Z,640.0000
2023-05-09T07:08:29.564Z,646.6154
2023-05-09T07:09:30.667Z,649.0000
2023-05-09T07:10:31.730Z,643.7692
2023-05-09T07:11:32.820Z,636.0769
2023-05-09T07:12:33.946Z,640.1539
2023-05-09T07:13:35.114Z,634.2308
2023-05-09T07:14:36.129Z,629.4615
2023-05-09T07:15:42.266Z,624.0769
2023-05-09T07:16:39.357Z,617.3077
2023-05-09T07:17:39.505Z,623.8461
2023-05-09T07:18:40.509Z,612.2308
2023-05-09T07:19:41.583Z,611.0000
2023-05-09T07:20:42.685Z,610.4615
2023-05-09T07:21:43.795Z,618.9231
2023-05-09T07:22:44.891Z,619.8461
2023-05-09T07:23:46.060Z,611.2308
2023-05-09T07:24:47.076Z,608.4615
2023-05-09T07:25:48.169Z,612.6923
2023-05-09T07:26:49.258Z,608.8461
2023-05-09T07:27:50.388Z,606.7692
2023-05-09T07:28:51.533Z,609.7692
2023-05-09T07:29:52.541Z,609.3077
2023-05-09T07:30:53.655Z,606.9231
2023-05-09T07:31:54.788Z,603.6154
2023-05-09T07:32:55.885Z,602.0769
2023-05-09T07:33:56.925Z,599.1539
2023-05-09T07:34:58.035Z,601.6923
2023-05-09T07:35:59.162Z,604.4615
2023-05-09T07:37:00.218Z,601.8461
2023-05-09T07:38:01.337Z,605.3846
2023-05-09T07:39:02.394Z,598.0000
2023-05-09T07:40:03.500Z,601.5385
2023-05-09T07:41:04.611Z,605.0769
2023-05-09T07:42:05.701Z,604.3077
2023-05-09T07:43:06.790Z,601.1539
2023-05-09T07:44:08.023Z,595.6154
2023-05-09T07:45:08.980Z,590.7692
2023-05-09T07:46:10.125Z,583.1539
2023-05-09T07:47:11.160Z,581.2308
2023-05-09T07:48:12.334Z,579.2308
2023-05-09T07:49:13.358Z,574.8461
2023-05-09T07:50:14.448Z,570.8461
2023-05-09T07:51:15.547Z,573.3846
2023-05-09T07:52:16.618Z,566.6154
2023-05-09T07:53:17.791Z,579.4615
2023-05-09T07:54:18.828Z,565.8461
2023-05-09T07:55:19.917Z,563.0000
2023-05-09T07:56:21.014Z,562.5385
2023-05-09T07:57:22.143Z,558.3846
2023-05-09T07:58:23.196Z,563.6923
2023-05-09T07:59:24.367Z,558.7692
2023-05-09T08:00:25.459Z,559.4615
2023-05-09T08:01:26.485Z,565.6154
2023-05-09T08:02:27.625Z,568.1539
2023-05-09T08:03:28.721Z,564.4615
2023-05-09T08:04:29.793Z,569.9231
2023-05-09T08:05:30.877Z,568.8461
2023-05-09T08:06:31.947Z,562.3846
2023-05-09T08:07:33.055Z,553.0000
2023-05-09T08:08:34.175Z,552.0000
2023-05-09T08:09:35.240Z,558.3077
2023-05-09T08:10:36.367Z,569.5385
2023-05-09T08:11:37.433Z,566.6923
2023-05-09T08:12:38.564Z,558.8461
2023-05-09T08:13:39.620Z,548.0769
2023-05-09T08:14:40.810Z,550.8461
2023-05-09T08:15:41.867Z,550.2308
2023-05-09T08:16:42.907Z,555.2308
2023-05-09T08:17:44.060Z,559.3846
2023-05-09T08:18:45.118Z,569.0000
2023-05-09T08:19:46.188Z,568.1539
2023-05-09T08:20:47.283Z,567.7692
2023-05-09T08:21:48.377Z,572.6154
2023-05-09T08:22:49.486Z,568.5385
2023-05-09T08:23:50.568Z,575.0769
2023-05-09T08:24:51.643Z,564.1539
2023-05-09T08:25:52.748Z,572.9231
2023-05-09T08:26:53.849Z,574.2308
2023-05-09T08:27:54.942Z,573.8461
2023-05-09T08:28:56.063Z,575.2308
2023-05-09T08:29:57.223Z,575.8461
2023-05-09T08:30:58.271Z,575.1539
2023-05-09T08:31:59.405Z,575.0769
2023-05-09T08:33:00.445Z,575.6154
2023-05-09T08:34:01.531Z,575.2308
2023-05-09T08:35:02.626Z,578.4615
2023-05-09T08:36:03.711Z,568.3846
2023-05-09T08:37:04.795Z,572.5385
2023-05-09T08:38:05.891Z,579.7692
2023-05-09T08:39:06.984Z,573.7692
2023-05-09T08:40:08.086Z,574.7692
2023-05-09T08:41:09.201Z,572.9231
2023-05-09T08:42:10.287Z,567.3077
2023-05-09T08:43:11.386Z,571.5385
2023-05-09T08:44:12.483Z,566.3846
2023-05-09T08:45:13.558Z,571.7692
2023-05-09T08:46:14.680Z,577.0769
2023-05-09T08:47:15.767Z,582.5385
2023-05-09T08:48:16.865Z,588.6923
2023-05-09T08:49:17.946Z,595.1539
2023-05-09T08:50:19.164Z,590.6154
2023-05-09T08:51:20.149Z,588.4615
2023-05-09T08:52:21.244Z,592.9231
2023-05-09T08:53:22.314Z,589.8461
2023-05-09T08:54:23.447Z,585.2308
2023-05-09T08:55:24.519Z,584.9231
2023-05-09T08:56:25.614Z,584.8461
2023-05-09T08:57:26.693Z,594.0769
2023-05-09T08:58:27.797Z,595.3077
2023-05-09T08:59:28.902Z,594.3846
2023-05-09T09:00:30.080Z,590.3077
2023-05-09T09:01:31.105Z,587.3846
2023-05-09T09:02:32.204Z,595.1539
2023-05-09T09:03:33.280Z,596.1539
2023-05-09T09:04:34.428Z,592.4615
2023-05-09T09:06:36.567Z,591.6923
2023-05-09T09:07:37.662Z,592.0000
2023-05-09T09:08:38.761Z,589.4615
2023-05-09T09:09:39.856Z,596.6923
2023-05-09T09:10:40.925Z,590.6923
2023-05-09T09:11:42.039Z,590.7692
2023-05-09T09:12:43.145Z,592.3077
2023-05-09T09:13:44.202Z,589.6154
2023-05-09T09:14:45.324Z,593.0000
2023-05-09T09:15:46.509Z,590.4615
2023-05-09T09:16:47.530Z,594.8461
2023-05-09T09:17:48.624Z,598.7692
2023-05-09T09:18:49.691Z,600.8461
2023-05-09T09:19:50.838Z,607.1539
2023-05-09T09:20:51.866Z,608.6923
2023-05-09T09:21:52.973Z,610.0769
2023-05-09T09:22:54.095Z,606.6154
2023-05-09T09:23:55.174Z,604.3846
2023-05-09T09:24:56.259Z,601.2308
2023-05-09T09:25:59.539Z,607.5385
2023-05-09T09:26:58.449Z,599.1539
2023-05-09T09:27:59.579Z,607.9231
2023-05-09T09:29:00.640Z,604.5385
2023-05-09T09:30:01.770Z,598.0000
2023-05-09T09:31:02.915Z,596.4615
2023-05-09T09:32:03.949Z,603.0769
2023-05-09T09:33:05.117Z,598.7692
2023-05-09T09:34:06.936Z,604.3846
2023-05-09T09:35:07.238Z,606.8461
2023-05-09T09:36:08.295Z,608.0769
2023-05-09T09:37:09.395Z,610.9231
2023-05-09T09:38:10.497Z,612.0769
2023-05-09T09:39:11.590Z,616.8461
2023-05-09T09:40:12.913Z,611.6154
2023-05-09T09:41:13.782Z,610.1539
2023-05-09T09:42:14.894Z,613.5385
2023-05-09T09:43:15.969Z,614.6154
2023-05-09T09:44:17.081Z,606.6923
2023-05-09T09:45:18.186Z,615.1539
2023-05-09T09:46:19.361Z,614.4615
2023-05-09T09:47:20.352Z,620.0000
2023-05-09T09:48:21.445Z,612.8461
2023-05-09T09:49:22.523Z,606.6923
2023-05-09T09:50:23.648Z,614.1539
2023-05-09T09:51:24.712Z,616.1539
2023-05-09T09:52:25.835Z,609.4615
2023-05-09T09:53:26.919Z,610.2308
2023-05-09T09:54:28.037Z,618.0769
2023-05-09T09:55:29.107Z,613.5385
2023-05-09T09:56:30.190Z,612.3077
2023-05-09T09:57:31.348Z,607.9231
2023-05-09T09:58:32.399Z,601.9231
2023-05-09T09:59:33.495Z,599.0000
2023-05-09T10:00:34.566Z,607.0000
2023-05-09T10:01:35.805Z,600.2308
2023-05-09T10:02:36.789Z,595.3846
2023-05-09T10:03:37.889Z,602.7692
2023-05-09T10:04:39.053Z,601.6923
2023-05-09T10:05:40.039Z,609.3077
2023-05-09T10:06:41.121Z,608.1539
2023-05-09T10:07:42.214Z,602.6154
2023-05-09T10:08:43.293Z,602.5385
2023-05-09T10:09:44.380Z,595.1539
2023-05-09T10:10:45.515Z,590.3846
2023-05-09T10:11:46.568Z,590.0000
2023-05-09T10:12:47.719Z,593.7692
2023-05-09T10:13:48.763Z,592.0000
2023-05-09T10:14:49.856Z,593.1539
2023-05-09T10:15:53.879Z,597.2308
2023-05-09T10:16:52.204Z,602.1539
2023-05-09T10:17:53.271Z,605.6154
2023-05-09T10:18:54.308Z,608.7692
2023-05-09T10:19:55.318Z,605.0000
2023-05-09T10:20:56.482Z,599.2308
2023-05-09T10:21:57.498Z,605.0769
2023-05-09T10:22:58.581Z,600.4615
2023-05-09T10:23:59.684Z,600.3077
2023-05-09T10:25:00.836Z,599.0769
2023-05-09T10:26:01.957Z,583.8461
2023-05-09T10:27:03.035Z,578.5385
2023-05-09T10:28:04.139Z,575.7692
2023-05-09T10:29:05.208Z,569.8461
2023-05-09T10:30:06.322Z,571.1539
2023-05-09T10:31:08.872Z,573.3077
2023-05-09T10:32:08.589Z,568.0000
2023-05-09T10:33:09.639Z,576.9231
2023-05-09T10:34:10.696Z,575.0769
2023-05-09T10:35:11.825Z,582.3846
2023-05-09T10:36:12.920Z,586.1539
2023-05-09T10:37:13.976Z,576.3846
2023-05-09T10:38:15.072Z,575.9231
2023-05-09T10:39:16.168Z,590.7692
2023-05-09T10:40:17.274Z,589.6923
2023-05-09T10:41:18.356Z,590.5385
2023-05-09T10:42:19.467Z,583.2308
2023-05-09T10:43:20.538Z,593.1539
2023-05-09T10:44:21.624Z,598.8461
2023-05-09T10:45:22.765Z,586.8461
2023-05-09T10:46:23.905Z,592.9231
2023-05-09T10:47:25.035Z,589.5385
2023-05-09T10:48:26.001Z,594.6923
2023-05-09T10:49:27.096Z,593.2308
2023-05-09T10:50:28.198Z,591.0000
2023-05-09T10:51:29.310Z,590.7692
2023-05-09T10:52:30.395Z,592.3846
2023-05-09T10:53:31.479Z,589.0769
2023-05-09T10:54:32.562Z,588.4615
2023-05-09T10:55:33.655Z,586.6154
2023-05-09T10:56:34.772Z,578.0769
2023-05-09T10:57:35.858Z,585.3846
2023-05-09T10:58:36.932Z,582.7692
2023-05-09T10:59:38.036Z,582.3846
2023-05-09T11:00:39.141Z,585.0000
2023-05-09T11:01:40.301Z,588.3077
2023-05-09T11:02:41.463Z,592.2308
2023-05-09T11:03:42.500Z,596.0769
2023-05-09T11:04:43.516Z,602.3846
2023-05-09T11:05:44.583Z,601.3077
2023-05-09T11:06:45.706Z,598.3846
2023-05-09T11:07:46.786Z,586.1539
2023-05-09T11:08:47.878Z,599.7692
2023-05-09T11:09:48.968Z,591.3077
2023-05-09T11:10:50.055Z,593.3077
2023-05-09T11:11:51.168Z,584.1539
2023-05-09T11:12:52.248Z,590.8461
2023-05-09T11:13:53.340Z,583.3846
2023-05-09T11:14:54.433Z,584.6154
2023-05-09T11:15:55.578Z,573.5385
2023-05-09T11:16:56.613Z,571.5385
2023-05-09T11:17:57.840Z,573.3846
2023-05-09T11:18:58.813Z,580.0769
2023-05-09T11:19:59.892Z,574.2308
2023-05-09T11:21:01.007Z,571.5385
2023-05-09T11:22:02.127Z,571.3077
2023-05-09T11:23:03.182Z,569.2308
2023-05-09T11:24:04.300Z,574.6923
2023-05-09T11:25:05.370Z,570.6154
2023-05-09T11:26:06.523Z,579.3846
2023-05-09T11:27:07.594Z,574.0769
2023-05-09T11:28:08.672Z,581.4615
2023-05-09T11:29:09.781Z,570.3846
2023-05-09T11:30:10.876Z,570.9231
2023-05-09T11:31:11.955Z,568.0000
2023-05-09T11:32:13.180Z,566.2308
2023-05-09T11:33:14.228Z,579.7692
2023-05-09T11:34:15.221Z,582.0000
2023-05-09T11:35:16.664Z,584.6923
2023-05-09T11:36:17.440Z,580.3077
2023-05-09T11:37:18.515Z,588.7692
2023-05-09T11:38:19.604Z,577.7692
2023-05-09T11:39:20.704Z,578.0000
2023-05-09T11:40:21.813Z,573.6923
2023-05-09T11:41:22.894Z,575.8461
2023-05-09T11:42:23.977Z,580.0000
2023-05-09T11:43:25.076Z,589.6154
2023-05-09T11:44:26.178Z,581.2308
2023-05-09T11:45:27.271Z,576.3846
2023-05-09T11:46:28.373Z,566.9231
2023-05-09T11:47:29.484Z,570.2308
2023-05-09T11:48:30.618Z,579.3077
2023-05-09T11:49:31.619Z,578.6923
2023-05-09T11:50:32.730Z,582.2308
2023-05-09T11:51:33.819Z,588.3077
2023-05-09T11:52:34.906Z,590.3846
2023-05-09T11:53:35.991Z,579.9231
2023-05-09T11:54:37.085Z,577.4615
2023-05-09T11:55:38.217Z,581.0769
2023-05-09T11:56:39.288Z,571.7692
2023-05-09T11:57:40.379Z,577.0000
2023-05-09T11:58:41.457Z,584.7692